createdAt,value
2018-06-16T00:00:20.165Z,53.30
2018-06-16T00:02:46.157Z,53.32
2018-06-16T00:05:12.138Z,53.30
2018-06-16T00:07:38.121Z,53.36
2018-06-16T00:10:04.107Z,53.29
2018-06-16T00:12:30.094Z,53.29
2018-06-16T00:14:56.073Z,53.31
2018-06-16T00:17:22.058Z,53.29
2018-06-16T00:19:48.043Z,53.28
2018-06-16T00:22:14.061Z,53.27
2018-06-16T00:24:40.015Z,53.29
2018-06-16T00:27:06.003Z,53.32
2018-06-16T00:29:31.986Z,53.30
2018-06-16T00:31:57.969Z,53.22
2018-06-16T00:34:23.952Z,53.25
2018-06-16T00:36:49.936Z,53.29
2018-06-16T00:39:15.925Z,53.24
2018-06-16T00:41:41.910Z,53.23
2018-06-16T00:44:07.886Z,53.21
2018-06-16T00:46:33.875Z,53.21
2018-06-16T00:48:59.859Z,53.17
2018-06-16T00:51:25.832Z,53.19
2018-06-16T00:53:51.838Z,53.20
2018-06-16T00:56:17.818Z,53.21
2018-06-16T00:58:43.798Z,53.18
2018-06-16T01:01:09.778Z,53.14
2018-06-16T01:03:35.768Z,53.22
2018-06-16T01:06:01.755Z,53.25
2018-06-16T01:08:27.743Z,53.18
2018-06-16T01:10:53.735Z,53.21
2018-06-16T01:13:19.726Z,53.16
2018-06-16T01:15:45.711Z,53.13
2018-06-16T01:18:11.702Z,53.17
2018-06-16T01:20:37.686Z,53.14
2018-06-16T01:23:03.721Z,53.16
2018-06-16T01:25:29.749Z,53.14
2018-06-16T01:27:55.738Z,53.14
2018-06-16T01:30:21.721Z,53.10
2018-06-16T01:32:47.710Z,53.16
2018-06-16T01:35:13.690Z,53.15
2018-06-16T01:37:39.667Z,53.08
2018-06-16T01:40:05.655Z,53.09
2018-06-16T01:42:31.629Z,53.13
2018-06-16T01:44:57.610Z,53.11
2018-06-16T01:47:23.597Z,53.15
2018-06-16T01:49:49.580Z,53.12
2018-06-16T01:52:15.561Z,53.09
2018-06-16T01:54:41.542Z,53.08
2018-06-16T01:57:07.530Z,53.09
2018-06-16T01:59:33.520Z,53.06
2018-06-16T02:01:59.510Z,53.09
2018-06-16T02:04:25.496Z,53.02
2018-06-16T02:06:51.493Z,53.04
2018-06-16T02:09:17.476Z,53.05
2018-06-16T02:11:43.459Z,53.06
2018-06-16T02:14:09.434Z,53.05
2018-06-16T02:16:35.414Z,53.03
2018-06-16T02:19:01.441Z,52.98
2018-06-16T02:21:27.420Z,52.99
2018-06-16T02:23:53.396Z,53.05
2018-06-16T02:26:19.373Z,53.00
2018-06-16T02:28:45.353Z,53.02
2018-06-16T02:31:11.337Z,53.00
2018-06-16T02:33:37.323Z,52.97
2018-06-16T02:36:03.318Z,52.99
2018-06-16T02:38:29.307Z,52.99
2018-06-16T02:40:55.293Z,52.94
2018-06-16T02:43:21.270Z,52.95
2018-06-16T02:45:47.265Z,52.98
2018-06-16T02:48:13.253Z,52.99
2018-06-16T02:50:39.226Z,52.95
2018-06-16T02:53:05.208Z,52.96
2018-06-16T02:55:31.218Z,52.94
2018-06-16T02:57:57.206Z,52.96
2018-06-16T03:00:23.229Z,52.96
2018-06-16T03:02:49.212Z,52.98
2018-06-16T03:05:15.187Z,52.96
2018-06-16T03:07:41.176Z,52.95
2018-06-16T03:10:07.183Z,52.99
2018-06-16T03:12:33.168Z,52.92
2018-06-16T03:14:59.151Z,52.91
2018-06-16T03:17:25.155Z,52.96
2018-06-16T03:19:51.131Z,52.94
2018-06-16T03:22:17.115Z,52.93
2018-06-16T03:24:43.098Z,52.92
2018-06-16T03:27:09.083Z,52.95
2018-06-16T03:29:35.069Z,52.91
2018-06-16T03:32:01.054Z,52.92
2018-06-16T03:34:27.035Z,52.94
2018-06-16T03:36:53.013Z,52.90
2018-06-16T03:39:19.004Z,52.92
2018-06-16T03:41:44.981Z,52.94
2018-06-16T03:44:11.078Z,52.91
2018-06-16T03:46:38.218Z,52.85
2018-06-16T03:49:03.044Z,52.90
2018-06-16T03:51:29.034Z,52.92
2018-06-16T03:53:55.015Z,52.83
2018-06-16T03:56:21.054Z,52.83
2018-06-16T03:58:46.971Z,52.83
2018-06-16T04:01:12.958Z,52.84
2018-06-16T04:03:38.936Z,52.90
2018-06-16T04:06:04.915Z,52.82
2018-06-16T04:08:30.899Z,52.89
2018-06-16T04:10:56.885Z,52.89
2018-06-16T04:13:22.902Z,52.80
2018-06-16T04:15:48.849Z,52.84
2018-06-16T04:18:14.827Z,52.88
2018-06-16T04:20:40.815Z,52.92
2018-06-16T04:23:06.792Z,52.93
2018-06-16T04:25:32.786Z,52.84
2018-06-16T04:27:58.796Z,52.86
2018-06-16T04:30:24.781Z,52.92
2018-06-16T04:32:50.763Z,52.86
2018-06-16T04:35:16.752Z,52.86
2018-06-16T04:37:42.732Z,52.85
2018-06-16T04:40:08.707Z,52.86
2018-06-16T04:42:34.684Z,52.87
2018-06-16T04:45:00.693Z,52.81
2018-06-16T04:47:26.688Z,52.82
2018-06-16T04:49:52.664Z,52.78
2018-06-16T04:52:18.685Z,52.76
2018-06-16T04:54:44.635Z,52.78
2018-06-16T04:57:10.620Z,52.79
2018-06-16T04:59:36.605Z,52.77
2018-06-16T05:02:02.594Z,52.90
2018-06-16T05:04:28.572Z,52.82
2018-06-16T05:06:54.567Z,52.87
2018-06-16T05:09:20.543Z,52.88
2018-06-16T05:11:47.649Z,52.96
2018-06-16T05:14:13.948Z,52.93
2018-06-16T05:16:40.249Z,53.03
2018-06-16T05:19:06.583Z,53.05
2018-06-16T05:21:33.134Z,52.99
2018-06-16T05:23:59.683Z,53.18
2018-06-16T05:26:26.381Z,53.30
2018-06-16T05:28:52.627Z,53.19
2018-06-16T05:31:19.233Z,52.95
2018-06-16T05:33:45.763Z,53.02
2018-06-16T05:36:12.674Z,53.21
2018-06-16T05:38:38.714Z,53.28
2018-06-16T05:41:04.693Z,53.38
2018-06-16T05:43:30.728Z,53.26
2018-06-16T05:45:56.719Z,53.49
2018-06-16T05:48:22.708Z,53.41
2018-06-16T05:50:48.698Z,53.27
2018-06-16T05:53:14.673Z,53.56
2018-06-16T05:55:40.673Z,53.20
2018-06-16T05:58:06.670Z,53.50
2018-06-16T06:00:32.908Z,53.53
2018-06-16T06:02:58.877Z,53.25
2018-06-16T06:05:24.899Z,53.61
2018-06-16T06:07:50.924Z,53.49
2018-06-16T06:10:17.060Z,53.15
2018-06-16T06:12:43.075Z,53.27
2018-06-16T06:15:09.066Z,53.24
2018-06-16T06:17:35.043Z,52.77
2018-06-16T06:20:01.041Z,52.85
2018-06-16T06:22:27.039Z,52.95
2018-06-16T06:24:53.054Z,52.94
2018-06-16T06:27:19.041Z,53.20
2018-06-16T06:29:45.046Z,53.26
2018-06-16T06:32:11.060Z,52.97
2018-06-16T06:34:37.125Z,53.08
2018-06-16T06:37:03.149Z,53.04
2018-06-16T06:39:29.184Z,53.24
2018-06-16T06:41:55.180Z,53.45
2018-06-16T06:44:21.178Z,53.48
2018-06-16T06:46:47.202Z,53.28
2018-06-16T06:49:13.576Z,53.39
2018-06-16T06:51:39.613Z,53.45
2018-06-16T06:54:05.579Z,53.32
2018-06-16T06:56:31.563Z,53.14
2018-06-16T06:58:57.645Z,53.44
2018-06-16T07:01:23.646Z,53.30
2018-06-16T07:03:49.698Z,53.03
2018-06-16T07:06:15.808Z,52.98
2018-06-16T07:08:41.850Z,53.19
2018-06-16T07:11:07.867Z,53.34
2018-06-16T07:13:34.994Z,53.28
2018-06-16T07:16:00.999Z,52.93
2018-06-16T07:18:26.984Z,53.03
2018-06-16T07:20:53.000Z,52.88
2018-06-16T07:23:19.002Z,52.82
2018-06-16T07:25:45.054Z,52.88
2018-06-16T07:28:11.084Z,53.09
2018-06-16T07:30:37.196Z,53.12
2018-06-16T07:33:03.264Z,53.10
2018-06-16T07:35:29.269Z,52.94
2018-06-16T07:37:55.379Z,53.00
2018-06-16T07:40:21.361Z,52.88
2018-06-16T07:42:47.440Z,52.90
2018-06-16T07:45:13.658Z,53.27
2018-06-16T07:47:39.646Z,53.26
2018-06-16T07:50:05.697Z,53.21
2018-06-16T07:52:31.736Z,53.00
2018-06-16T07:54:57.739Z,53.08
2018-06-16T07:57:23.753Z,53.17
2018-06-16T07:59:49.796Z,53.22
2018-06-16T08:02:15.794Z,53.10
2018-06-16T08:04:41.780Z,53.16
2018-06-16T08:07:07.792Z,52.96
2018-06-16T08:09:33.779Z,52.92
2018-06-16T08:11:59.774Z,52.91
2018-06-16T08:14:25.764Z,52.86
2018-06-16T08:16:51.779Z,52.90
2018-06-16T08:19:17.781Z,52.94
2018-06-16T08:21:43.828Z,53.21
2018-06-16T08:24:09.829Z,53.06
2018-06-16T08:26:35.946Z,53.11
2018-06-16T08:29:01.942Z,53.10
2018-06-16T08:31:27.932Z,53.30
2018-06-16T08:33:54.059Z,53.34
2018-06-16T08:36:20.261Z,53.35
2018-06-16T08:38:46.239Z,53.35
2018-06-16T08:41:12.230Z,53.30
2018-06-16T08:43:38.220Z,53.34
2018-06-16T08:46:04.909Z,53.00
2018-06-16T08:48:30.865Z,53.27
2018-06-16T08:50:56.862Z,53.44
2018-06-16T08:53:22.958Z,53.43
2018-06-16T08:55:48.993Z,53.11
2018-06-16T08:58:14.992Z,53.20
2018-06-16T09:00:41.034Z,53.43
2018-06-16T09:03:07.036Z,53.34
2018-06-16T09:05:33.026Z,53.34
2018-06-16T09:07:59.454Z,53.27
2018-06-16T09:10:25.457Z,53.36
2018-06-16T09:12:52.457Z,53.55
2018-06-16T09:15:18.438Z,53.59
2018-06-16T09:17:44.430Z,53.57
2018-06-16T09:20:10.445Z,53.21
2018-06-16T09:22:36.442Z,53.40
2018-06-16T09:25:02.414Z,53.35
2018-06-16T09:27:28.405Z,53.31
2018-06-16T09:29:54.387Z,53.64
2018-06-16T09:32:20.619Z,53.67
2018-06-16T09:34:46.614Z,53.52
2018-06-16T09:37:12.667Z,53.31
2018-06-16T09:39:38.701Z,53.52
2018-06-16T09:42:04.916Z,53.59
2018-06-16T09:44:30.864Z,53.78
2018-06-16T09:46:57.000Z,53.31
2018-06-16T09:49:23.165Z,53.18
2018-06-16T09:51:49.162Z,53.38
2018-06-16T09:59:42.623Z,53.21
2018-06-16T10:02:08.642Z,53.10
2018-06-16T10:04:34.631Z,53.17
2018-06-16T10:07:00.616Z,53.05
2018-06-16T10:09:26.614Z,53.05
2018-06-16T10:11:52.632Z,53.04
2018-06-16T10:14:18.640Z,52.85
2018-06-16T10:16:44.610Z,53.41
2018-06-16T10:19:10.677Z,53.58
2018-06-16T10:21:36.670Z,53.30
2018-06-16T10:24:02.660Z,53.62
2018-06-16T10:26:28.645Z,53.03
2018-06-16T10:28:54.633Z,53.04
2018-06-16T10:31:20.613Z,52.78
2018-06-16T10:33:46.601Z,52.84
2018-06-16T10:36:12.584Z,52.56
2018-06-16T10:38:38.581Z,52.66
2018-06-16T10:41:04.557Z,53.00
2018-06-16T10:43:30.555Z,52.98
2018-06-16T10:45:56.544Z,53.02
2018-06-16T10:48:22.549Z,53.05
2018-06-16T10:50:48.535Z,53.46
2018-06-16T10:53:14.515Z,53.46
2018-06-16T10:55:40.503Z,53.27
2018-06-16T10:58:06.492Z,53.39
2018-06-16T11:00:32.487Z,52.96
2018-06-16T11:03:00.424Z,53.27
2018-06-16T11:05:24.519Z,52.82
2018-06-16T11:07:50.509Z,53.09
2018-06-16T11:10:16.490Z,53.03
2018-06-16T11:12:42.484Z,52.78
2018-06-16T11:15:08.467Z,53.13
2018-06-16T11:17:34.459Z,53.01
2018-06-16T11:20:00.461Z,53.25
2018-06-16T11:22:26.437Z,52.63
2018-06-16T11:24:52.489Z,52.71
2018-06-16T11:27:18.773Z,52.79
2018-06-16T11:29:44.948Z,52.63
2018-06-16T11:32:10.935Z,52.64
2018-06-16T11:34:36.946Z,52.55
2018-06-16T11:37:02.893Z,52.53
2018-06-16T11:39:28.875Z,52.58
2018-06-16T11:41:54.857Z,52.54
2018-06-16T11:44:20.846Z,52.30
2018-06-16T11:46:46.824Z,52.29
2018-06-16T11:49:12.811Z,52.32
2018-06-16T11:51:38.787Z,52.28
2018-06-16T11:54:04.778Z,52.47
2018-06-16T11:56:30.776Z,52.60
2018-06-16T11:58:56.762Z,52.47
2018-06-16T12:01:22.748Z,52.54
2018-06-16T12:03:48.729Z,52.54
2018-06-16T12:06:14.715Z,53.13
2018-06-16T12:08:40.747Z,52.85
2018-06-16T12:11:06.732Z,53.25
2018-06-16T12:13:32.708Z,53.88
2018-06-16T12:15:58.689Z,53.71
2018-06-16T12:18:24.675Z,53.53
2018-06-16T12:20:50.653Z,53.26
2018-06-16T12:23:16.679Z,53.49
2018-06-16T12:25:42.683Z,53.76
2018-06-16T12:28:08.662Z,52.77
2018-06-16T12:30:34.651Z,52.57
2018-06-16T12:33:00.654Z,52.88
2018-06-16T12:35:26.703Z,53.09
2018-06-16T12:37:52.697Z,52.95
2018-06-16T12:40:18.728Z,53.44
2018-06-16T12:42:44.744Z,53.61
2018-06-16T12:45:10.714Z,53.67
2018-06-16T12:47:36.860Z,53.65
2018-06-16T12:50:02.852Z,53.88
2018-06-16T12:52:28.846Z,53.26
2018-06-16T12:54:54.833Z,53.36
2018-06-16T12:57:20.832Z,53.35
2018-06-16T12:59:46.818Z,53.71
2018-06-16T13:02:12.812Z,53.44
2018-06-16T13:04:38.793Z,53.14
2018-06-16T13:07:04.785Z,53.55
2018-06-16T13:09:30.779Z,53.79
2018-06-16T13:11:56.792Z,53.73
2018-06-16T13:14:22.775Z,53.30
2018-06-16T13:16:48.754Z,53.66
2018-06-16T13:19:14.752Z,53.44
2018-06-16T13:21:40.735Z,53.79
2018-06-16T13:24:06.719Z,53.87
2018-06-16T13:26:32.704Z,53.62
2018-06-16T13:28:58.697Z,53.25
2018-06-16T13:31:24.685Z,53.61
2018-06-16T13:33:50.693Z,53.41
2018-06-16T13:36:16.674Z,53.25
2018-06-16T13:38:42.658Z,53.61
2018-06-16T13:41:08.675Z,53.18
2018-06-16T13:43:34.660Z,53.58
2018-06-16T13:46:00.643Z,53.33
2018-06-16T13:48:26.670Z,53.22
2018-06-16T13:50:52.686Z,53.48
2018-06-16T13:53:18.638Z,53.48
2018-06-16T13:55:44.627Z,53.63
2018-06-16T13:58:10.610Z,53.40
2018-06-16T14:00:36.593Z,53.02
2018-06-16T14:03:02.590Z,53.49
2018-06-16T14:05:28.566Z,53.58
2018-06-16T14:07:54.553Z,53.27
2018-06-16T14:10:20.542Z,53.73
2018-06-16T14:12:46.521Z,53.73
2018-06-16T14:15:12.498Z,53.25
2018-06-16T14:17:38.492Z,53.76
2018-06-16T14:20:04.473Z,53.68
2018-06-16T14:22:30.478Z,53.56
2018-06-16T14:24:56.469Z,53.31
2018-06-16T14:27:22.709Z,53.92
2018-06-16T14:29:48.698Z,53.53
2018-06-16T14:32:14.809Z,54.06
2018-06-16T14:34:40.795Z,53.44
2018-06-16T14:37:06.785Z,53.68
2018-06-16T14:39:32.770Z,54.03
2018-06-16T14:41:58.790Z,53.67
2018-06-16T14:44:24.777Z,53.50
2018-06-16T14:46:50.757Z,53.52
2018-06-16T14:49:16.744Z,53.82
2018-06-16T14:51:42.721Z,53.92
2018-06-16T14:54:08.738Z,54.01
2018-06-16T14:56:34.765Z,53.93
2018-06-16T14:59:00.727Z,53.91
2018-06-16T15:01:26.716Z,53.95
2018-06-16T15:03:52.697Z,53.76
2018-06-16T15:06:18.717Z,53.48
2018-06-16T15:08:44.697Z,53.45
2018-06-16T15:11:10.755Z,53.48
2018-06-16T15:13:36.787Z,54.01
2018-06-16T15:16:02.772Z,54.21
2018-06-16T15:18:28.731Z,53.94
2018-06-16T15:20:54.738Z,54.34
2018-06-16T15:23:20.736Z,54.35
2018-06-16T15:25:46.718Z,54.48
2018-06-16T15:28:12.749Z,55.18
2018-06-16T15:30:38.740Z,54.77
2018-06-16T15:33:04.724Z,54.91
2018-06-16T15:35:30.703Z,54.26
2018-06-16T15:37:56.692Z,54.46
2018-06-16T15:40:22.679Z,55.08
2018-06-16T15:42:48.671Z,55.10
2018-06-16T15:45:14.653Z,54.67
2018-06-16T15:47:40.640Z,54.14
2018-06-16T15:50:06.622Z,54.97
2018-06-16T15:52:32.606Z,55.03
2018-06-16T15:54:58.646Z,55.06
2018-06-16T15:57:24.576Z,54.73
2018-06-16T15:59:50.600Z,54.88
2018-06-16T16:02:16.591Z,54.60
2018-06-16T16:04:42.617Z,54.22
2018-06-16T16:07:08.600Z,54.31
2018-06-16T16:09:34.583Z,54.41
2018-06-16T16:12:00.568Z,54.36
2018-06-16T16:14:26.578Z,54.72
2018-06-16T16:16:52.575Z,54.58
2018-06-16T16:19:18.650Z,54.43
2018-06-16T16:21:44.630Z,54.16
2018-06-16T16:24:10.611Z,53.29
2018-06-16T16:26:36.606Z,53.91
2018-06-16T16:29:02.646Z,54.79
2018-06-16T16:31:28.573Z,54.54
2018-06-16T16:33:54.566Z,54.59
2018-06-16T16:36:20.549Z,54.39
2018-06-16T16:38:46.539Z,54.28
2018-06-16T16:41:12.532Z,54.10
2018-06-16T16:43:38.511Z,53.81
2018-06-16T16:46:04.493Z,53.66
2018-06-16T16:48:30.468Z,53.14
2018-06-16T16:50:56.479Z,51.15
2018-06-16T16:53:22.464Z,52.49
2018-06-16T16:55:48.443Z,52.38
2018-06-16T16:58:14.432Z,52.05
2018-06-16T17:00:40.443Z,51.37
2018-06-16T17:03:06.435Z,50.89
2018-06-16T17:05:32.418Z,51.10
2018-06-16T17:07:59.344Z,51.27
2018-06-16T17:10:24.389Z,51.42
2018-06-16T17:12:50.377Z,51.44
2018-06-16T17:15:16.356Z,51.74
2018-06-16T17:17:42.340Z,52.09
2018-06-16T17:20:08.329Z,51.85
2018-06-16T17:22:34.303Z,52.31
2018-06-16T17:25:00.282Z,52.85
2018-06-16T17:27:26.278Z,53.01
2018-06-16T17:29:52.258Z,53.30
2018-06-16T17:32:18.252Z,53.25
2018-06-16T17:34:44.257Z,53.19
2018-06-16T17:37:10.295Z,53.24
2018-06-16T17:39:36.277Z,52.97
2018-06-16T17:42:02.271Z,53.10
2018-06-16T17:44:28.252Z,52.95
2018-06-16T17:46:54.241Z,52.71
2018-06-16T17:49:20.225Z,52.86
2018-06-16T17:51:46.209Z,52.88
2018-06-16T17:54:12.214Z,52.88
2018-06-16T17:56:38.216Z,52.84
2018-06-16T17:59:04.237Z,52.79
2018-06-16T18:01:30.223Z,52.55
2018-06-16T18:03:56.434Z,52.77
2018-06-16T18:06:22.447Z,52.68
2018-06-16T18:08:48.449Z,52.51
2018-06-16T18:11:14.472Z,52.19
2018-06-16T18:13:40.446Z,52.66
2018-06-16T18:16:06.430Z,52.64
2018-06-16T18:18:32.591Z,52.67
2018-06-16T18:20:58.569Z,52.80
2018-06-16T18:23:24.553Z,52.77
2018-06-16T18:25:50.534Z,52.78
2018-06-16T18:28:16.525Z,53.00
2018-06-16T18:30:42.513Z,52.96
2018-06-16T18:33:08.493Z,54.41
2018-06-16T18:35:34.479Z,54.84
2018-06-16T18:38:00.472Z,54.84
2018-06-16T18:40:26.461Z,55.51
2018-06-16T18:42:52.461Z,54.72
2018-06-16T18:45:18.500Z,54.65
2018-06-16T18:47:44.503Z,54.44
2018-06-16T18:50:10.521Z,54.77
2018-06-16T18:52:36.508Z,54.05
2018-06-16T18:55:02.498Z,54.07
2018-06-16T18:57:28.481Z,54.15
2018-06-16T18:59:54.478Z,54.05
2018-06-16T19:02:20.494Z,54.51
2018-06-16T19:04:46.519Z,54.16
2018-06-16T19:07:12.510Z,54.24
2018-06-16T19:09:38.501Z,54.45
2018-06-16T19:12:04.488Z,53.85
2018-06-16T19:14:30.467Z,54.16
2018-06-16T19:16:56.445Z,53.85
2018-06-16T19:19:22.423Z,54.22
2018-06-16T19:21:48.416Z,53.83
2018-06-16T19:24:14.399Z,53.88
2018-06-16T19:26:40.419Z,53.69
2018-06-16T19:29:06.455Z,54.23
2018-06-16T19:31:32.389Z,54.10
2018-06-16T19:33:58.373Z,53.71
2018-06-16T19:36:24.384Z,54.15
2018-06-16T19:38:50.369Z,53.99
2018-06-16T19:41:16.416Z,54.10
2018-06-16T19:43:42.372Z,53.65
2018-06-16T19:46:08.364Z,54.07
2018-06-16T19:48:34.344Z,53.92
2018-06-16T19:51:00.340Z,53.76
2018-06-16T19:53:26.330Z,53.65
2018-06-16T19:55:52.345Z,53.66
2018-06-16T19:58:18.368Z,53.63
2018-06-16T20:00:44.357Z,53.68
2018-06-16T20:03:10.345Z,53.64
2018-06-16T20:05:36.326Z,53.95
2018-06-16T20:08:02.363Z,53.70
2018-06-16T20:10:28.314Z,53.64
2018-06-16T20:12:54.298Z,54.04
2018-06-16T20:15:20.283Z,53.78
2018-06-16T20:17:46.259Z,53.86
2018-06-16T20:20:12.273Z,54.38
2018-06-16T20:22:38.239Z,54.46
2018-06-16T20:25:04.419Z,54.48
2018-06-16T20:27:30.405Z,54.37
2018-06-16T20:29:57.068Z,54.56
2018-06-16T20:32:23.004Z,54.52
2018-06-16T20:34:48.986Z,54.31
2018-06-16T20:37:16.041Z,54.75
2018-06-16T20:39:43.016Z,54.91
2018-06-16T20:42:10.728Z,54.80
2018-06-16T20:44:36.718Z,54.66
2018-06-16T20:47:02.725Z,54.32
2018-06-16T20:49:28.710Z,54.56
2018-06-16T20:51:55.834Z,54.42
2018-06-16T20:54:21.823Z,54.49
2018-06-16T20:56:47.790Z,54.27
2018-06-16T20:59:13.780Z,54.34
2018-06-16T21:01:39.769Z,54.16
2018-06-16T21:04:06.808Z,54.20
2018-06-16T21:06:33.618Z,54.15
2018-06-16T21:09:00.188Z,54.26
2018-06-16T21:11:26.998Z,54.10
2018-06-16T21:13:53.978Z,53.93
2018-06-16T21:16:22.608Z,54.26
2018-06-16T21:18:50.378Z,53.94
2018-06-16T21:21:17.138Z,53.99
2018-06-16T21:23:43.834Z,53.86
2018-06-16T21:26:17.687Z,54.06
2018-06-16T21:28:53.885Z,54.09
2018-06-16T21:31:21.717Z,53.75
2018-06-16T21:33:48.674Z,53.87
2018-06-16T21:36:21.343Z,53.79
2018-06-16T21:38:53.239Z,53.75
2018-06-16T21:41:19.846Z,53.92
2018-06-16T21:43:45.836Z,54.05
2018-06-16T21:46:11.820Z,53.73
2018-06-16T21:48:37.817Z,53.98
2018-06-16T21:51:03.796Z,53.62
2018-06-16T21:53:29.814Z,53.63
2018-06-16T21:55:55.809Z,53.61
2018-06-16T21:58:21.791Z,53.62
2018-06-16T22:00:47.775Z,53.84
2018-06-16T22:03:13.770Z,53.62
2018-06-16T22:05:39.751Z,53.81
2018-06-16T22:08:05.738Z,53.80
2018-06-16T22:10:31.738Z,53.59
2018-06-16T22:12:57.699Z,53.78
2018-06-16T22:15:23.687Z,53.69
2018-06-16T22:17:49.669Z,53.53
2018-06-16T22:20:15.650Z,53.53
2018-06-16T22:22:41.648Z,53.53
2018-06-16T22:25:07.629Z,53.53
2018-06-16T22:27:33.610Z,53.55
2018-06-16T22:29:59.593Z,53.56
2018-06-16T22:32:25.583Z,53.68
2018-06-16T22:34:51.570Z,53.67
2018-06-16T22:37:17.557Z,53.67
2018-06-16T22:39:43.553Z,53.68
2018-06-16T22:42:09.546Z,53.50
2018-06-16T22:44:35.517Z,53.65
2018-06-16T22:47:01.506Z,53.59
2018-06-16T22:49:27.485Z,53.53
2018-06-16T22:51:53.473Z,53.64
2018-06-16T22:54:19.461Z,53.63
2018-06-16T22:56:45.439Z,53.50
2018-06-16T22:59:11.425Z,53.50
2018-06-16T23:01:37.419Z,53.57
2018-06-16T23:04:03.433Z,53.61
2018-06-16T23:06:29.415Z,53.57
2018-06-16T23:08:55.403Z,53.52
2018-06-16T23:11:21.392Z,53.54
2018-06-16T23:13:47.378Z,53.58
2018-06-16T23:16:13.401Z,53.53
2018-06-16T23:18:39.378Z,53.52
2018-06-16T23:21:05.367Z,53.49
2018-06-16T23:23:31.350Z,53.51
2018-06-16T23:25:57.331Z,53.47
2018-06-16T23:28:23.319Z,53.41
2018-06-16T23:30:49.304Z,53.43
2018-06-16T23:33:15.290Z,53.45
2018-06-16T23:35:41.270Z,53.44
2018-06-16T23:38:07.248Z,53.38
2018-06-16T23:40:33.235Z,53.40
2018-06-16T23:42:59.214Z,53.39
2018-06-16T23:45:25.289Z,53.38
2018-06-16T23:47:51.272Z,53.40
2018-06-16T23:50:17.254Z,53.41
2018-06-16T23:52:43.238Z,53.37
2018-06-16T23:55:09.214Z,53.38
2018-06-16T23:57:35.196Z,53.37
